Latest Coastal Weather Observations for Dum In Mirrie

IDD60701

Issued at 3:45 am CST Thursday 2 October 2014 (issued every 10 minutes, with the page automatically refreshed every 10 minutes)

About coastal observations | Map of coastal stations | Coastal observations for NT | Marine services | Other Formats
Station Details ID: 014277 Name: DUM IN MIRRIE AIRSTRIP Lat: -12.63 Lon: 130.37 Height: 3.5 m
Data from the previous 72 hours. | See also: Recent months at Dum In Mirrie
Date/Time
CST
Temp

°C
Wind Pressure Rain
since 9am
mm
Weather Cloud Vis
km
Sea
Height
m
Swell
Dir
 
Speed
knots
Gust
knots
hPa Trend Height
m
Period
s
Dir
02/03:30am 25.7 N 2 4 1011.6 - 0.0 - - - - - - -
02/03:00am 26.2 N 4 7 1011.7 - 0.0 - - - - - - -
02/02:30am 26.3 N 3 5 1011.8 - 0.0 - - - - - - -
02/02:00am 26.8 NNW 4 7 1011.9 - 0.0 - - - - - - -
02/01:30am 27.1 NNW 4 8 1011.9 - 0.0 - - - - - - -
02/01:00am 27.4 NNW 3 6 1012.3 - 0.0 - - - - - - -
02/12:30am 27.4 NNW 3 6 1012.3 - 0.0 - - - - - - -
02/12:00am 27.6 NW 3 6 1012.6 - 0.0 - - - - - - -
 
Date/Time
CST
Temp

°C
Wind Pressure Rain
since 9am
mm
Weather Cloud Vis
km
Sea
Height
m
Swell
Dir
 
Speed
knots
Gust
knots
hPa Trend Height
m
Period
s
Dir
01/11:30pm 27.5 WNW 3 5 1012.6 - 0.0 - - - - - - -
01/11:00pm 27.5 WNW 3 5 1012.6 - 0.0 - - - - - - -
01/10:30pm 27.7 W 4 6 1012.5 - 0.0 - - - - - - -
01/10:00pm 27.7 WSW 2 3 1012.5 - 0.0 - - - - - - -
01/09:30pm 27.6 SW 4 5 1012.0 - 0.0 - - - - - - -
01/09:00pm 27.7 SW 4 6 1011.7 - 0.0 - - - - - - -
01/08:30pm 27.8 WSW 3 6 1011.7 - 0.0 - - - - - - -
01/08:00pm 27.9 W 3 6 1011.2 - 0.0 - - - - - - -
01/07:30pm 27.7 W 4 7 1010.6 - 0.0 - - - - - - -
01/07:00pm 27.5 W 3 4 1010.2 - 0.0 - - - - - - -
01/06:30pm 27.9 WNW 2 4 1010.1 - 0.0 - - - - - - -
01/06:00pm 28.7 NW 3 6 1009.9 - 0.0 - - - - - - -
01/05:30pm 29.1 NNW 5 9 1009.7 - 0.0 - - - - - - -
01/05:00pm 29.4 N 6 10 1009.6 - 0.0 - - - - - - -
01/04:30pm 29.5 NW 6 9 1009.6 - 0.0 - - - - - - -
01/04:00pm 30.1 NW 5 8 1009.7 - 0.0 - - - - - - -
01/03:30pm 30.5 NW 6 10 1009.9 - 0.0 - - - - - - -
01/03:00pm 30.0 NNW 6 9 1010.1 - 0.0 - - - - - - -
01/02:30pm 30.6 NW 6 10 1010.4 - 0.0 - - - - - - -
01/02:00pm 30.9 NNW 7 10 1010.8 - 0.0 - - - - - - -
01/01:30pm 31.1 NNW 6 11 1011.3 - 0.0 - - - - - - -
01/01:00pm 30.6 NNW 6 10 1012.0 - 0.0 - - - - - - -
01/12:30pm 30.5 NNW 9 13 1012.5 - 0.0 - - - - - - -
01/12:00pm 31.6 N 9 15 1013.0 - 0.0 - - - - - - -
01/11:30am 32.2 NE 5 11 1013.5 - 0.0 - - - - - - -
01/11:00am 30.6 W 4 7 1014.0 - 0.0 - - - - - - -
01/10:30am 29.5 WNW 4 6 1014.3 - 0.0 - - - - - - -
01/10:00am 29.9 SW 3 6 1014.2 - 0.0 - - - - - - -
01/09:30am 29.5 S 3 5 1014.4 - 0.0 - - - - - - -
01/09:00am 28.4 S 3 5 1014.2 - 0.0 - - - - - - -
01/08:30am 28.3 S 2 4 1014.0 - 0.0 - - - - - - -
01/08:00am 28.0 E 2 3 1013.7 - 0.0 - - - - - - -
01/07:30am 26.8 ESE 2 4 1013.5 - 0.0 - - - - - - -
01/07:00am 25.1 ESE 2 3 1013.2 - 0.0 - - - - - - -
01/06:30am 25.1 E 2 4 1012.9 - 0.0 - - - - - - -
01/06:00am 25.0 E 2 3 1012.6 - 0.0 - - - - - - -
01/05:30am 25.3 E 2 3 1012.1 - 0.0 - - - - - - -
01/05:00am 25.8 E 3 4 1012.0 - 0.0 - - - - - - -
01/04:30am 25.7 E 4 6 1011.6 - 0.0 - - - - - - -
01/04:00am 26.2 E 5 8 1011.5 - 0.0 - - - - - - -
01/03:30am 26.3 NE 4 7 1011.7 - 0.0 - - - - - - -
01/03:00am 26.5 NNE 3 6 1011.7 - 0.0 - - - - - - -
01/02:30am 26.5 NNE 5 7 1011.8 - 0.0 - - - - - - -
01/02:00am 26.9 N 4 9 1011.7 - 0.0 - - - - - - -
01/01:30am 27.1 NW 3 7 1012.0 - 0.0 - - - - - - -
01/01:00am 26.8 WNW 3 5 1012.1 - 0.0 - - - - - - -
01/12:30am 26.9 WNW 3 7 1012.6 - 0.0 - - - - - - -
01/12:00am 27.0 WNW 4 8 1012.8 - 0.0 - - - - - - -
 
Date/Time
CST
Temp

°C
Wind Pressure Rain
since 9am
mm
Weather Cloud Vis
km
Sea
Height
m
Swell
Dir
 
Speed
knots
Gust
knots
hPa Trend Height
m
Period
s
Dir
30/11:30pm 27.1 W 4 8 1012.8 - 0.0 - - - - - - -
30/11:00pm 27.3 W 5 8 1013.0 - 0.0 - - - - - - -
30/10:30pm 27.4 W 5 9 1012.8 - 0.0 - - - - - - -
30/10:00pm 27.5 W 5 8 1012.7 - 0.0 - - - - - - -
30/09:30pm 27.5 W 5 10 1012.2 - 0.0 - - - - - - -
30/09:00pm 27.5 W 4 7 1012.0 - 0.0 - - - - - - -
30/08:30pm 27.6 W 4 7 1011.7 - 0.0 - - - - - - -
30/08:00pm 27.7 WNW 3 4 1011.5 - 0.0 - - - - - - -
30/07:30pm 28.1 WNW 3 6 1011.1 - 0.0 - - - - - - -
30/07:00pm 28.4 NNW 1 3 1010.8 - 0.0 - - - - - - -
30/06:30pm 28.9 N 3 5 1010.2 - 0.0 - - - - - - -
30/06:00pm 29.6 N 5 9 1009.8 - 0.0 - - - - - - -
30/05:30pm 30.0 N 6 11 1009.6 - 0.0 - - - - - - -
30/05:00pm 29.4 N 7 11 1009.5 - 0.0 - - - - - - -
30/04:30pm 30.7 N 8 13 1009.3 - 0.0 - - - - - - -
30/04:00pm 30.5 N 8 14 1009.6 - 0.0 - - - - - - -
30/03:30pm 31.2 N 9 16 1009.7 - 0.0 - - - - - - -
30/03:00pm 30.7 NNE 10 16 1009.9 - 0.0 - - - - - - -
30/02:30pm 30.9 N 8 14 1010.2 - 0.0 - - - - - - -
30/02:00pm 32.0 N 9 14 1010.7 - 0.0 - - - - - - -
30/01:30pm 31.2 N 10 16 1011.3 - 0.0 - - - - - - -
30/01:00pm 31.3 N 9 14 1011.8 - 0.0 - - - - - - -
30/12:30pm 30.6 N 8 15 1012.5 - 0.0 - - - - - - -
30/12:00pm 31.6 N 9 15 1012.8 - 0.0 - - - - - - -
30/11:30am 30.8 N 7 12 1013.3 - 0.0 - - - - - - -
30/11:00am 30.3 N 7 12 1013.6 - 0.0 - - - - - - -
30/10:30am 30.1 N 7 11 1013.8 - 0.0 - - - - - - -
30/10:00am 29.7 ENE 6 8 1014.3 - 0.0 - - - - - - -
30/09:30am 29.4 E 6 10 1014.4 - 0.0 - - - - - - -
30/09:00am 28.7 ENE 6 10 1014.3 - 0.0 - - - - - - -
30/08:30am 28.6 NNE 5 8 1014.2 - 0.0 - - - - - - -
30/08:00am 27.4 N 3 4 1013.8 - 0.0 - - - - - - -
30/07:30am 25.6 NNE 3 4 1013.7 - 0.0 - - - - - - -
30/07:00am 24.8 NE 3 4 1013.5 - 0.0 - - - - - - -
30/06:30am 23.9 ENE 2 3 1013.2 - 0.0 - - - - - - -
30/06:00am 23.1 NE 3 4 1013.0 - 0.0 - - - - - - -
30/05:30am 23.3 NE 1 2 1012.5 - 0.0 - - - - - - -
30/05:00am 23.0 NE 2 2 1012.3 - 0.0 - - - - - - -
30/04:30am 22.7 N 1 2 1012.1 - 0.0 - - - - - - -
30/04:00am 22.6 CALM 0 0 1011.8 - 0.0 - - - - - - -
30/03:30am 22.9 NW 1 2 1011.6 - 0.0 - - - - - - -
30/03:00am 23.1 CALM 0 0 1011.7 - 0.0 - - - - - - -
30/02:30am 23.6 CALM 0 1 1011.7 - 0.0 - - - - - - -
30/02:00am 24.1 N 2 2 1011.7 - 0.0 - - - - - - -
30/01:30am 25.5 NNW 2 3 1011.9 - 0.0 - - - - - - -
30/01:00am 26.8 WNW 3 5 1012.0 - 0.0 - - - - - - -
30/12:30am 26.8 NW 3 5 1012.1 - 0.0 - - - - - - -
30/12:00am 27.1 WNW 4 7 1012.2 - 0.0 - - - - - - -
 
Date/Time
CST
Temp

°C
Wind Pressure Rain
since 9am
mm
Weather Cloud Vis
km
Sea
Height
m
Swell
Dir
 
Speed
knots
Gust
knots
hPa Trend Height
m
Period
s
Dir
29/11:30pm 27.3 WNW 4 7 1012.1 - 0.0 - - - - - - -
29/11:00pm 27.4 W 4 7 1012.2 - 0.0 - - - - - - -
29/10:30pm 27.4 W 4 7 1012.2 - 0.0 - - - - - - -
29/10:00pm 27.5 W 4 6 1012.2 - 0.0 - - - - - - -
29/09:30pm 27.5 W 4 6 1011.8 - 0.0 - - - - - - -
29/09:00pm 27.6 W 4 7 1011.5 - 0.0 - - - - - - -
29/08:30pm 27.5 W 3 6 1011.1 - 0.0 - - - - - - -
29/08:00pm 27.5 WNW 3 6 1010.9 - 0.0 - - - - - - -
29/07:30pm 27.6 W 3 5 1010.6 - 0.0 - - - - - - -
29/07:00pm 27.8 WNW 3 5 1010.3 - 0.0 - - - - - - -
29/06:30pm 28.4 W 4 6 1010.1 - 0.0 - - - - - - -
29/06:00pm 29.5 W 4 8 1009.7 - 0.0 - - - - - - -
29/05:30pm 30.0 W 5 8 1009.5 - 0.0 - - - - - - -
29/05:00pm 30.4 W 4 8 1009.3 - 0.0 - - - - - - -
29/04:30pm 30.7 W 6 8 1009.4 - 0.0 - - - - - - -
29/04:00pm 31.2 W 6 9 1009.4 - 0.0 - - - - - - -
29/03:30pm 31.7 W 6 10 1009.6 - 0.0 - - - - - - -
29/03:00pm 31.9 NW 5 9 1009.8 - 0.0 - - - - - - -
29/02:30pm 31.7 NW 6 10 1010.2 - 0.0 - - - - - - -
29/02:00pm 31.6 NW 7 10 1010.7 - 0.0 - - - - - - -
29/01:30pm 30.4 NNW 6 10 1011.4 - 0.0 - - - - - - -
29/01:00pm 31.1 NNW 5 9 1012.0 - 0.0 - - - - - - -
29/12:30pm 29.8 NW 6 9 1012.5 - 0.0 - - - - - - -
29/12:00pm 30.4 NW 6 9 1013.0 - 0.0 - - - - - - -
29/11:30am 29.9 NNW 6 9 1013.3 - 0.0 - - - - - - -
29/11:00am 30.1 NNW 4 8 1013.6 - 0.0 - - - - - - -
29/10:30am 29.6 NNW 5 7 1013.6 - 0.0 - - - - - - -
29/10:00am 29.6 NNW 5 8 1013.4 - 0.0 - - - - - - -
29/09:30am 29.7 NNW 4 6 1013.3 - 0.0 - - - - - - -
29/09:00am 29.2 NNW 4 7 1013.3 - 0.0 - - - - - - -
29/08:30am 28.7 NNW 3 6 1013.2 - 0.0 - - - - - - -
29/08:00am 27.9 N 3 6 1013.0 - 0.0 - - - - - - -
29/07:30am 26.4 N 2 4 1012.7 - 0.0 - - - - - - -
29/07:00am 22.7 NNW 2 4 1012.5 - 0.0 - - - - - - -
29/06:30am 22.7 N 1 3 1012.2 - 0.0 - - - - - - -
29/06:00am 23.1 N 2 3 1011.8 - 0.0 - - - - - - -
29/05:30am 23.3 N 2 3 1011.4 - 0.0 - - - - - - -
29/05:00am 24.1 NNE 1 2 1011.0 - 0.0 - - - - - - -
29/04:30am 25.0 NNE 3 4 1010.6 - 0.0 - - - - - - -
29/04:00am 25.1 NE 3 4 1010.4 - 0.0 - - - - - - -

Other Formats:

Comma delimited format used in spreadsheet applications
http://www.bom.gov.au/fwo/IDD60701/IDD60701.94116.axf

JavaScript Object Notation format (JSON) in row-major order
http://www.bom.gov.au/fwo/IDD60701/IDD60701.94116.json